sensor_id;sensor_type;location;lat;lon;timestamp;P1;durP1;ratioP1;P2;durP2;ratioP2
25846;SDS011;13676;50.168;8.568;2022-10-16T00:01:09;1.10;;;0.80;;
25846;SDS011;13676;50.168;8.568;2022-10-16T00:03:39;2.05;;;0.93;;
25846;SDS011;13676;50.168;8.568;2022-10-16T00:06:05;1.27;;;1.17;;
25846;SDS011;13676;50.168;8.568;2022-10-16T00:08:31;0.80;;;0.80;;
25846;SDS011;13676;50.168;8.568;2022-10-16T00:11:04;3.22;;;0.80;;
25846;SDS011;13676;50.168;8.568;2022-10-16T00:13:32;2.25;;;0.70;;
25846;SDS011;13676;50.168;8.568;2022-10-16T00:15:59;2.05;;;0.68;;
25846;SDS011;13676;50.168;8.568;2022-10-16T00:18:25;0.95;;;0.65;;
25846;SDS011;13676;50.168;8.568;2022-10-16T00:20:51;5.68;;;1.08;;
25846;SDS011;13676;50.168;8.568;2022-10-16T00:23:17;1.27;;;0.82;;
25846;SDS011;13676;50.168;8.568;2022-10-16T00:25:43;2.17;;;0.80;;
25846;SDS011;13676;50.168;8.568;2022-10-16T00:28:08;0.88;;;0.70;;
25846;SDS011;13676;50.168;8.568;2022-10-16T00:30:33;1.73;;;0.93;;
25846;SDS011;13676;50.168;8.568;2022-10-16T00:32:59;1.42;;;0.75;;
25846;SDS011;13676;50.168;8.568;2022-10-16T00:35:24;1.10;;;0.75;;
25846;SDS011;13676;50.168;8.568;2022-10-16T00:37:50;1.98;;;0.80;;
25846;SDS011;13676;50.168;8.568;2022-10-16T00:40:15;1.02;;;0.80;;
25846;SDS011;13676;50.168;8.568;2022-10-16T00:42:40;3.00;;;1.10;;
25846;SDS011;13676;50.168;8.568;2022-10-16T00:45:06;2.00;;;1.10;;
25846;SDS011;13676;50.168;8.568;2022-10-16T00:47:43;1.27;;;0.98;;
25846;SDS011;13676;50.168;8.568;2022-10-16T00:50:18;3.33;;;0.85;;
25846;SDS011;13676;50.168;8.568;2022-10-16T00:52:49;1.45;;;0.80;;
25846;SDS011;13676;50.168;8.568;2022-10-16T00:55:15;1.00;;;0.90;;
25846;SDS011;13676;50.168;8.568;2022-10-16T00:57:41;1.73;;;0.90;;
25846;SDS011;13676;50.168;8.568;2022-10-16T01:00:09;2.35;;;1.10;;
25846;SDS011;13676;50.168;8.568;2022-10-16T01:02:39;2.53;;;1.20;;
25846;SDS011;13676;50.168;8.568;2022-10-16T01:05:04;1.23;;;1.13;;
25846;SDS011;13676;50.168;8.568;2022-10-16T01:07:52;2.17;;;1.30;;
25846;SDS011;13676;50.168;8.568;2022-10-16T01:10:27;2.28;;;1.70;;
25846;SDS011;13676;50.168;8.568;2022-10-16T01:12:59;1.70;;;1.50;;
25846;SDS011;13676;50.168;8.568;2022-10-16T01:18:23;1.70;;;1.45;;
25846;SDS011;13676;50.168;8.568;2022-10-16T01:20:51;2.80;;;2.00;;
25846;SDS011;13676;50.168;8.568;2022-10-16T01:28:52;3.42;;;2.67;;
25846;SDS011;13676;50.168;8.568;2022-10-16T01:31:19;3.28;;;2.97;;
25846;SDS011;13676;50.168;8.568;2022-10-16T01:33:50;3.88;;;2.75;;
25846;SDS011;13676;50.168;8.568;2022-10-16T01:36:22;4.07;;;3.55;;
25846;SDS011;13676;50.168;8.568;2022-10-16T01:38:52;4.07;;;3.67;;
25846;SDS011;13676;50.168;8.568;2022-10-16T01:43:54;3.65;;;3.30;;
25846;SDS011;13676;50.168;8.568;2022-10-16T01:46:25;4.68;;;4.10;;
25846;SDS011;13676;50.168;8.568;2022-10-16T01:48:51;5.97;;;3.47;;
25846;SDS011;13676;50.168;8.568;2022-10-16T01:51:17;6.20;;;3.88;;
25846;SDS011;13676;50.168;8.568;2022-10-16T01:53:43;6.03;;;4.57;;
25846;SDS011;13676;50.168;8.568;2022-10-16T01:56:12;4.82;;;4.10;;
25846;SDS011;13676;50.168;8.568;2022-10-16T01:58:40;4.43;;;3.97;;
25846;SDS011;13676;50.168;8.568;2022-10-16T02:01:08;6.50;;;4.20;;
25846;SDS011;13676;50.168;8.568;2022-10-16T02:03:36;5.50;;;4.18;;
25846;SDS011;13676;50.168;8.568;2022-10-16T02:06:03;5.35;;;4.10;;
25846;SDS011;13676;50.168;8.568;2022-10-16T02:08:28;5.38;;;4.22;;
25846;SDS011;13676;50.168;8.568;2022-10-16T02:10:55;4.18;;;3.65;;
25846;SDS011;13676;50.168;8.568;2022-10-16T02:13:30;5.13;;;4.07;;
25846;SDS011;13676;50.168;8.568;2022-10-16T02:16:02;5.70;;;5.05;;
25846;SDS011;13676;50.168;8.568;2022-10-16T02:18:27;6.88;;;4.78;;
25846;SDS011;13676;50.168;8.568;2022-10-16T02:20:57;8.13;;;5.57;;
25846;SDS011;13676;50.168;8.568;2022-10-16T02:23:34;7.82;;;6.07;;
25846;SDS011;13676;50.168;8.568;2022-10-16T02:28:31;4.65;;;4.13;;
25846;SDS011;13676;50.168;8.568;2022-10-16T02:31:03;4.63;;;3.67;;
25846;SDS011;13676;50.168;8.568;2022-10-16T02:33:30;4.40;;;4.00;;
25846;SDS011;13676;50.168;8.568;2022-10-16T02:35:56;8.85;;;4.00;;
25846;SDS011;13676;50.168;8.568;2022-10-16T02:38:22;4.13;;;3.70;;
25846;SDS011;13676;50.168;8.568;2022-10-16T02:40:48;4.65;;;3.13;;
25846;SDS011;13676;50.168;8.568;2022-10-16T02:43:14;4.38;;;3.22;;
25846;SDS011;13676;50.168;8.568;2022-10-16T02:45:40;3.85;;;3.42;;
25846;SDS011;13676;50.168;8.568;2022-10-16T02:48:05;3.72;;;3.40;;
25846;SDS011;13676;50.168;8.568;2022-10-16T02:50:31;4.53;;;4.13;;
25846;SDS011;13676;50.168;8.568;2022-10-16T02:52:56;3.78;;;3.47;;
25846;SDS011;13676;50.168;8.568;2022-10-16T02:55:22;4.25;;;3.70;;
25846;SDS011;13676;50.168;8.568;2022-10-16T02:57:47;3.33;;;2.85;;
25846;SDS011;13676;50.168;8.568;2022-10-16T03:00:14;6.03;;;3.10;;
25846;SDS011;13676;50.168;8.568;2022-10-16T03:02:40;3.15;;;2.88;;
25846;SDS011;13676;50.168;8.568;2022-10-16T03:05:06;5.50;;;3.80;;
25846;SDS011;13676;50.168;8.568;2022-10-16T03:07:32;3.85;;;3.40;;
25846;SDS011;13676;50.168;8.568;2022-10-16T03:09:58;5.78;;;3.60;;
25846;SDS011;13676;50.168;8.568;2022-10-16T03:12:25;4.18;;;2.90;;
25846;SDS011;13676;50.168;8.568;2022-10-16T03:14:51;3.63;;;2.67;;
25846;SDS011;13676;50.168;8.568;2022-10-16T03:17:17;2.80;;;2.28;;
25846;SDS011;13676;50.168;8.568;2022-10-16T03:19:42;2.90;;;2.53;;
25846;SDS011;13676;50.168;8.568;2022-10-16T03:22:07;2.97;;;2.67;;
25846;SDS011;13676;50.168;8.568;2022-10-16T03:24:33;3.22;;;2.58;;
25846;SDS011;13676;50.168;8.568;2022-10-16T03:26:58;3.38;;;2.72;;
25846;SDS011;13676;50.168;8.568;2022-10-16T03:29:24;3.35;;;3.05;;
25846;SDS011;13676;50.168;8.568;2022-10-16T03:31:50;2.97;;;2.53;;
25846;SDS011;13676;50.168;8.568;2022-10-16T03:34:16;2.90;;;2.70;;
25846;SDS011;13676;50.168;8.568;2022-10-16T03:36:41;2.90;;;2.45;;
25846;SDS011;13676;50.168;8.568;2022-10-16T03:39:06;2.65;;;2.38;;
25846;SDS011;13676;50.168;8.568;2022-10-16T03:41:32;3.28;;;2.65;;
25846;SDS011;13676;50.168;8.568;2022-10-16T03:43:57;2.65;;;2.35;;
25846;SDS011;13676;50.168;8.568;2022-10-16T03:46:22;2.33;;;2.10;;
25846;SDS011;13676;50.168;8.568;2022-10-16T03:48:48;2.50;;;2.30;;
25846;SDS011;13676;50.168;8.568;2022-10-16T03:51:13;2.90;;;2.53;;
25846;SDS011;13676;50.168;8.568;2022-10-16T03:53:38;3.72;;;1.80;;
25846;SDS011;13676;50.168;8.568;2022-10-16T03:56:04;3.38;;;2.47;;
25846;SDS011;13676;50.168;8.568;2022-10-16T03:58:29;2.28;;;1.90;;
25846;SDS011;13676;50.168;8.568;2022-10-16T04:00:55;2.45;;;2.10;;
25846;SDS011;13676;50.168;8.568;2022-10-16T04:03:20;3.13;;;2.25;;
25846;SDS011;13676;50.168;8.568;2022-10-16T04:05:46;3.08;;;2.28;;
25846;SDS011;13676;50.168;8.568;2022-10-16T04:08:11;5.25;;;2.20;;
25846;SDS011;13676;50.168;8.568;2022-10-16T04:10:37;1.92;;;1.73;;
25846;SDS011;13676;50.168;8.568;2022-10-16T04:13:02;4.00;;;1.90;;
25846;SDS011;13676;50.168;8.568;2022-10-16T04:15:27;3.10;;;1.92;;
25846;SDS011;13676;50.168;8.568;2022-10-16T04:17:53;2.17;;;1.70;;
25846;SDS011;13676;50.168;8.568;2022-10-16T04:20:18;3.35;;;1.90;;
25846;SDS011;13676;50.168;8.568;2022-10-16T04:22:44;1.92;;;1.70;;
25846;SDS011;13676;50.168;8.568;2022-10-16T04:25:10;2.08;;;1.88;;
25846;SDS011;13676;50.168;8.568;2022-10-16T04:27:36;2.72;;;2.17;;
25846;SDS011;13676;50.168;8.568;2022-10-16T04:30:02;1.67;;;1.52;;
25846;SDS011;13676;50.168;8.568;2022-10-16T04:32:28;2.20;;;1.65;;
25846;SDS011;13676;50.168;8.568;2022-10-16T04:34:53;1.70;;;1.60;;
25846;SDS011;13676;50.168;8.568;2022-10-16T04:37:18;1.83;;;1.60;;
25846;SDS011;13676;50.168;8.568;2022-10-16T04:39:44;3.60;;;1.83;;
25846;SDS011;13676;50.168;8.568;2022-10-16T04:42:10;2.60;;;1.63;;
25846;SDS011;13676;50.168;8.568;2022-10-16T04:44:35;2.67;;;1.70;;
25846;SDS011;13676;50.168;8.568;2022-10-16T04:47:01;1.90;;;1.70;;
25846;SDS011;13676;50.168;8.568;2022-10-16T04:49:26;1.50;;;1.40;;
25846;SDS011;13676;50.168;8.568;2022-10-16T04:51:51;2.95;;;1.70;;
25846;SDS011;13676;50.168;8.568;2022-10-16T04:54:17;1.63;;;1.52;;
25846;SDS011;13676;50.168;8.568;2022-10-16T04:56:42;2.15;;;1.75;;
25846;SDS011;13676;50.168;8.568;2022-10-16T04:59:12;2.75;;;1.98;;
25846;SDS011;13676;50.168;8.568;2022-10-16T05:01:40;4.82;;;1.30;;
25846;SDS011;13676;50.168;8.568;2022-10-16T05:04:06;1.92;;;1.60;;
25846;SDS011;13676;50.168;8.568;2022-10-16T05:06:31;1.77;;;1.40;;
25846;SDS011;13676;50.168;8.568;2022-10-16T05:08:56;3.58;;;1.48;;
25846;SDS011;13676;50.168;8.568;2022-10-16T05:11:22;1.88;;;1.48;;
25846;SDS011;13676;50.168;8.568;2022-10-16T05:13:47;1.70;;;1.40;;
25846;SDS011;13676;50.168;8.568;2022-10-16T05:16:12;3.92;;;1.45;;
25846;SDS011;13676;50.168;8.568;2022-10-16T05:18:38;1.42;;;1.15;;
25846;SDS011;13676;50.168;8.568;2022-10-16T05:21:03;2.28;;;1.40;;
25846;SDS011;13676;50.168;8.568;2022-10-16T05:23:29;2.75;;;1.40;;
25846;SDS011;13676;50.168;8.568;2022-10-16T05:25:55;5.43;;;1.58;;
25846;SDS011;13676;50.168;8.568;2022-10-16T05:28:23;1.58;;;1.48;;
25846;SDS011;13676;50.168;8.568;2022-10-16T05:30:49;1.95;;;1.20;;
25846;SDS011;13676;50.168;8.568;2022-10-16T05:33:14;1.75;;;1.05;;
25846;SDS011;13676;50.168;8.568;2022-10-16T05:35:40;2.75;;;1.27;;
25846;SDS011;13676;50.168;8.568;2022-10-16T05:38:06;1.52;;;1.40;;
25846;SDS011;13676;50.168;8.568;2022-10-16T05:40:31;1.50;;;1.40;;
25846;SDS011;13676;50.168;8.568;2022-10-16T05:42:56;1.55;;;1.45;;
25846;SDS011;13676;50.168;8.568;2022-10-16T05:45:22;1.40;;;1.30;;
25846;SDS011;13676;50.168;8.568;2022-10-16T05:47:47;1.60;;;1.40;;
25846;SDS011;13676;50.168;8.568;2022-10-16T05:50:12;3.38;;;1.30;;
25846;SDS011;13676;50.168;8.568;2022-10-16T05:52:39;1.30;;;1.13;;
25846;SDS011;13676;50.168;8.568;2022-10-16T05:55:04;2.20;;;1.95;;
25846;SDS011;13676;50.168;8.568;2022-10-16T05:57:30;1.30;;;1.10;;
25846;SDS011;13676;50.168;8.568;2022-10-16T05:59:55;1.40;;;1.30;;
25846;SDS011;13676;50.168;8.568;2022-10-16T06:02:20;2.42;;;1.48;;
25846;SDS011;13676;50.168;8.568;2022-10-16T06:04:46;2.00;;;1.40;;
25846;SDS011;13676;50.168;8.568;2022-10-16T06:07:11;2.70;;;1.48;;
25846;SDS011;13676;50.168;8.568;2022-10-16T06:09:37;1.70;;;1.42;;
25846;SDS011;13676;50.168;8.568;2022-10-16T06:12:02;1.70;;;1.40;;
25846;SDS011;13676;50.168;8.568;2022-10-16T06:14:28;3.03;;;1.60;;
25846;SDS011;13676;50.168;8.568;2022-10-16T06:16:53;2.30;;;1.50;;
25846;SDS011;13676;50.168;8.568;2022-10-16T06:19:18;2.03;;;1.70;;
25846;SDS011;13676;50.168;8.568;2022-10-16T06:21:44;1.90;;;1.65;;
25846;SDS011;13676;50.168;8.568;2022-10-16T06:24:09;1.60;;;1.50;;
25846;SDS011;13676;50.168;8.568;2022-10-16T06:26:35;1.58;;;1.48;;
25846;SDS011;13676;50.168;8.568;2022-10-16T06:29:00;4.00;;;1.38;;
25846;SDS011;13676;50.168;8.568;2022-10-16T06:31:26;2.53;;;1.73;;
25846;SDS011;13676;50.168;8.568;2022-10-16T06:33:55;2.38;;;1.60;;
25846;SDS011;13676;50.168;8.568;2022-10-16T06:36:21;1.65;;;1.55;;
25846;SDS011;13676;50.168;8.568;2022-10-16T06:38:47;1.85;;;1.33;;
25846;SDS011;13676;50.168;8.568;2022-10-16T06:41:14;1.75;;;1.30;;
25846;SDS011;13676;50.168;8.568;2022-10-16T06:46:06;1.25;;;1.15;;
25846;SDS011;13676;50.168;8.568;2022-10-16T06:48:34;2.25;;;1.52;;
25846;SDS011;13676;50.168;8.568;2022-10-16T06:51:01;1.95;;;1.58;;
25846;SDS011;13676;50.168;8.568;2022-10-16T06:53:30;1.92;;;1.40;;
25846;SDS011;13676;50.168;8.568;2022-10-16T06:55:57;1.20;;;1.10;;
25846;SDS011;13676;50.168;8.568;2022-10-16T06:58:22;1.45;;;1.35;;
25846;SDS011;13676;50.168;8.568;2022-10-16T07:00:48;2.10;;;1.17;;
25846;SDS011;13676;50.168;8.568;2022-10-16T07:03:14;1.92;;;1.30;;
25846;SDS011;13676;50.168;8.568;2022-10-16T07:05:40;1.50;;;1.30;;
25846;SDS011;13676;50.168;8.568;2022-10-16T07:08:06;1.50;;;1.40;;
25846;SDS011;13676;50.168;8.568;2022-10-16T07:10:32;1.80;;;1.33;;
25846;SDS011;13676;50.168;8.568;2022-10-16T07:12:58;1.80;;;1.33;;
25846;SDS011;13676;50.168;8.568;2022-10-16T07:15:24;1.48;;;1.30;;
25846;SDS011;13676;50.168;8.568;2022-10-16T07:17:49;2.67;;;1.40;;
25846;SDS011;13676;50.168;8.568;2022-10-16T07:20:15;1.67;;;1.20;;
25846;SDS011;13676;50.168;8.568;2022-10-16T07:22:40;1.33;;;0.90;;
25846;SDS011;13676;50.168;8.568;2022-10-16T07:25:06;1.92;;;1.20;;
25846;SDS011;13676;50.168;8.568;2022-10-16T07:27:31;2.88;;;1.38;;
25846;SDS011;13676;50.168;8.568;2022-10-16T07:29:57;1.10;;;1.00;;
25846;SDS011;13676;50.168;8.568;2022-10-16T07:32:22;1.80;;;1.30;;
25846;SDS011;13676;50.168;8.568;2022-10-16T07:34:48;1.30;;;0.95;;
25846;SDS011;13676;50.168;8.568;2022-10-16T07:37:14;1.40;;;1.30;;
25846;SDS011;13676;50.168;8.568;2022-10-16T07:39:39;3.22;;;1.40;;
25846;SDS011;13676;50.168;8.568;2022-10-16T07:42:04;3.03;;;1.30;;
25846;SDS011;13676;50.168;8.568;2022-10-16T07:44:30;3.25;;;1.52;;
25846;SDS011;13676;50.168;8.568;2022-10-16T07:46:55;2.20;;;1.42;;
25846;SDS011;13676;50.168;8.568;2022-10-16T07:49:23;3.08;;;2.08;;
25846;SDS011;13676;50.168;8.568;2022-10-16T07:51:49;3.13;;;1.60;;
25846;SDS011;13676;50.168;8.568;2022-10-16T07:54:14;5.32;;;1.60;;
25846;SDS011;13676;50.168;8.568;2022-10-16T07:56:39;3.15;;;1.80;;
25846;SDS011;13676;50.168;8.568;2022-10-16T07:59:05;3.20;;;1.75;;
25846;SDS011;13676;50.168;8.568;2022-10-16T08:01:30;2.13;;;1.80;;
25846;SDS011;13676;50.168;8.568;2022-10-16T08:03:55;2.25;;;1.48;;
25846;SDS011;13676;50.168;8.568;2022-10-16T08:06:21;2.75;;;1.70;;
25846;SDS011;13676;50.168;8.568;2022-10-16T08:08:47;2.92;;;1.70;;
25846;SDS011;13676;50.168;8.568;2022-10-16T08:11:13;3.72;;;1.85;;
25846;SDS011;13676;50.168;8.568;2022-10-16T08:13:40;2.05;;;1.40;;
25846;SDS011;13676;50.168;8.568;2022-10-16T08:16:05;2.30;;;1.70;;
25846;SDS011;13676;50.168;8.568;2022-10-16T08:18:33;2.13;;;1.65;;
25846;SDS011;13676;50.168;8.568;2022-10-16T08:21:00;2.00;;;1.48;;
25846;SDS011;13676;50.168;8.568;2022-10-16T08:23:25;1.45;;;1.20;;
25846;SDS011;13676;50.168;8.568;2022-10-16T08:25:55;1.20;;;1.10;;
25846;SDS011;13676;50.168;8.568;2022-10-16T08:28:21;2.63;;;1.65;;
25846;SDS011;13676;50.168;8.568;2022-10-16T08:30:47;3.03;;;1.40;;
25846;SDS011;13676;50.168;8.568;2022-10-16T08:33:12;1.85;;;1.52;;
25846;SDS011;13676;50.168;8.568;2022-10-16T08:35:38;1.90;;;1.50;;
25846;SDS011;13676;50.168;8.568;2022-10-16T08:38:03;2.20;;;1.48;;
25846;SDS011;13676;50.168;8.568;2022-10-16T08:40:30;2.20;;;1.45;;
25846;SDS011;13676;50.168;8.568;2022-10-16T08:43:04;1.80;;;1.63;;
25846;SDS011;13676;50.168;8.568;2022-10-16T08:50:48;2.17;;;1.48;;
25846;SDS011;13676;50.168;8.568;2022-10-16T08:53:16;4.10;;;1.55;;
25846;SDS011;13676;50.168;8.568;2022-10-16T08:55:49;3.33;;;1.73;;
25846;SDS011;13676;50.168;8.568;2022-10-16T08:58:22;3.00;;;1.80;;
25846;SDS011;13676;50.168;8.568;2022-10-16T09:00:55;2.55;;;1.65;;
25846;SDS011;13676;50.168;8.568;2022-10-16T09:03:30;2.55;;;1.90;;
25846;SDS011;13676;50.168;8.568;2022-10-16T09:06:32;1.95;;;1.60;;
25846;SDS011;13676;50.168;8.568;2022-10-16T09:11:51;3.17;;;1.65;;
25846;SDS011;13676;50.168;8.568;2022-10-16T09:17:33;3.05;;;1.50;;
25846;SDS011;13676;50.168;8.568;2022-10-16T09:25:30;2.20;;;1.73;;
25846;SDS011;13676;50.168;8.568;2022-10-16T09:27:57;2.35;;;1.60;;
25846;SDS011;13676;50.168;8.568;2022-10-16T09:30:22;3.35;;;2.25;;
25846;SDS011;13676;50.168;8.568;2022-10-16T09:32:49;2.80;;;1.88;;
25846;SDS011;13676;50.168;8.568;2022-10-16T09:35:22;2.60;;;1.95;;
25846;SDS011;13676;50.168;8.568;2022-10-16T09:37:52;1.77;;;1.67;;
25846;SDS011;13676;50.168;8.568;2022-10-16T09:40:51;2.30;;;1.50;;
25846;SDS011;13676;50.168;8.568;2022-10-16T09:43:20;2.00;;;1.70;;
25846;SDS011;13676;50.168;8.568;2022-10-16T09:45:57;2.63;;;1.70;;
25846;SDS011;13676;50.168;8.568;2022-10-16T09:48:25;4.55;;;1.70;;
25846;SDS011;13676;50.168;8.568;2022-10-16T09:50:57;2.25;;;1.48;;
25846;SDS011;13676;50.168;8.568;2022-10-16T09:53:24;2.40;;;1.70;;
25846;SDS011;13676;50.168;8.568;2022-10-16T09:55:55;3.03;;;1.50;;
25846;SDS011;13676;50.168;8.568;2022-10-16T09:58:23;1.80;;;1.63;;
25846;SDS011;13676;50.168;8.568;2022-10-16T10:00:50;3.10;;;1.88;;
25846;SDS011;13676;50.168;8.568;2022-10-16T10:03:28;2.65;;;1.63;;
25846;SDS011;13676;50.168;8.568;2022-10-16T10:06:45;3.38;;;2.00;;
25846;SDS011;13676;50.168;8.568;2022-10-16T10:14:21;2.20;;;1.63;;
25846;SDS011;13676;50.168;8.568;2022-10-16T10:17:02;5.72;;;1.98;;
25846;SDS011;13676;50.168;8.568;2022-10-16T10:22:19;2.53;;;1.83;;
25846;SDS011;13676;50.168;8.568;2022-10-16T10:30:23;2.22;;;1.33;;
25846;SDS011;13676;50.168;8.568;2022-10-16T10:39:06;4.40;;;1.73;;
25846;SDS011;13676;50.168;8.568;2022-10-16T10:56:43;1.60;;;1.33;;
25846;SDS011;13676;50.168;8.568;2022-10-16T10:59:28;2.13;;;1.63;;
25846;SDS011;13676;50.168;8.568;2022-10-16T11:02:00;2.58;;;1.30;;
25846;SDS011;13676;50.168;8.568;2022-10-16T11:10:27;2.33;;;1.48;;
25846;SDS011;13676;50.168;8.568;2022-10-16T11:12:55;1.55;;;1.40;;
25846;SDS011;13676;50.168;8.568;2022-10-16T11:15:28;2.25;;;1.50;;
25846;SDS011;13676;50.168;8.568;2022-10-16T11:18:29;1.50;;;1.40;;
25846;SDS011;13676;50.168;8.568;2022-10-16T11:20:56;2.67;;;1.50;;
25846;SDS011;13676;50.168;8.568;2022-10-16T11:25:48;3.13;;;1.20;;
25846;SDS011;13676;50.168;8.568;2022-10-16T11:28:23;2.90;;;1.40;;
25846;SDS011;13676;50.168;8.568;2022-10-16T11:30:54;0.90;;;0.90;;
25846;SDS011;13676;50.168;8.568;2022-10-16T11:33:25;2.35;;;1.10;;
25846;SDS011;13676;50.168;8.568;2022-10-16T11:46:35;2.60;;;0.95;;
25846;SDS011;13676;50.168;8.568;2022-10-16T11:49:08;1.98;;;1.05;;
25846;SDS011;13676;50.168;8.568;2022-10-16T11:51:37;2.65;;;1.20;;
25846;SDS011;13676;50.168;8.568;2022-10-16T11:56:33;3.03;;;1.63;;
25846;SDS011;13676;50.168;8.568;2022-10-16T11:59:14;2.75;;;1.60;;
25846;SDS011;13676;50.168;8.568;2022-10-16T12:02:29;1.27;;;1.17;;
25846;SDS011;13676;50.168;8.568;2022-10-16T12:04:34;2.05;;;1.65;;
25846;SDS011;13676;50.168;8.568;2022-10-16T12:07:11;4.65;;;1.30;;
25846;SDS011;13676;50.168;8.568;2022-10-16T12:09:39;1.80;;;1.50;;
25846;SDS011;13676;50.168;8.568;2022-10-16T12:12:23;2.78;;;1.52;;
25846;SDS011;13676;50.168;8.568;2022-10-16T12:14:59;3.85;;;2.05;;
25846;SDS011;13676;50.168;8.568;2022-10-16T12:17:40;2.97;;;2.00;;
25846;SDS011;13676;50.168;8.568;2022-10-16T12:22:40;2.38;;;1.80;;
25846;SDS011;13676;50.168;8.568;2022-10-16T12:27:56;1.90;;;1.45;;
25846;SDS011;13676;50.168;8.568;2022-10-16T12:30:23;2.22;;;1.73;;
25846;SDS011;13676;50.168;8.568;2022-10-16T12:32:57;3.17;;;1.77;;
25846;SDS011;13676;50.168;8.568;2022-10-16T12:35:26;5.15;;;1.80;;
25846;SDS011;13676;50.168;8.568;2022-10-16T12:37:53;1.63;;;1.27;;
25846;SDS011;13676;50.168;8.568;2022-10-16T12:40:26;1.30;;;1.20;;
25846;SDS011;13676;50.168;8.568;2022-10-16T12:42:52;1.65;;;1.10;;
25846;SDS011;13676;50.168;8.568;2022-10-16T12:45:36;2.03;;;1.80;;
25846;SDS011;13676;50.168;8.568;2022-10-16T12:48:02;1.73;;;1.40;;
25846;SDS011;13676;50.168;8.568;2022-10-16T12:53:03;1.58;;;1.10;;
25846;SDS011;13676;50.168;8.568;2022-10-16T12:55:42;1.30;;;1.20;;
25846;SDS011;13676;50.168;8.568;2022-10-16T13:01:10;2.75;;;1.40;;
25846;SDS011;13676;50.168;8.568;2022-10-16T13:06:28;1.60;;;1.40;;
25846;SDS011;13676;50.168;8.568;2022-10-16T13:09:06;1.63;;;1.27;;
25846;SDS011;13676;50.168;8.568;2022-10-16T13:22:11;2.05;;;1.30;;
25846;SDS011;13676;50.168;8.568;2022-10-16T13:30:21;1.13;;;1.02;;
25846;SDS011;13676;50.168;8.568;2022-10-16T13:33:00;2.63;;;1.30;;
25846;SDS011;13676;50.168;8.568;2022-10-16T13:35:28;1.05;;;0.95;;
25846;SDS011;13676;50.168;8.568;2022-10-16T13:40:55;1.13;;;0.95;;
25846;SDS011;13676;50.168;8.568;2022-10-16T13:43:31;2.33;;;1.10;;
25846;SDS011;13676;50.168;8.568;2022-10-16T13:48:24;1.00;;;1.00;;
25846;SDS011;13676;50.168;8.568;2022-10-16T13:51:03;1.23;;;0.90;;
25846;SDS011;13676;50.168;8.568;2022-10-16T13:53:31;1.13;;;0.90;;
25846;SDS011;13676;50.168;8.568;2022-10-16T13:55:58;1.10;;;1.00;;
25846;SDS011;13676;50.168;8.568;2022-10-16T13:58:25;1.27;;;1.00;;
25846;SDS011;13676;50.168;8.568;2022-10-16T14:01:01;1.75;;;1.00;;
25846;SDS011;13676;50.168;8.568;2022-10-16T14:03:28;0.80;;;0.80;;
25846;SDS011;13676;50.168;8.568;2022-10-16T14:05:59;0.90;;;0.88;;
25846;SDS011;13676;50.168;8.568;2022-10-16T14:08:27;1.50;;;0.90;;
25846;SDS011;13676;50.168;8.568;2022-10-16T14:10:55;1.15;;;0.98;;
25846;SDS011;13676;50.168;8.568;2022-10-16T14:13:32;0.80;;;0.77;;
25846;SDS011;13676;50.168;8.568;2022-10-16T14:16:00;1.00;;;0.90;;
25846;SDS011;13676;50.168;8.568;2022-10-16T14:18:30;1.05;;;1.00;;
25846;SDS011;13676;50.168;8.568;2022-10-16T14:21:01;1.30;;;1.00;;
25846;SDS011;13676;50.168;8.568;2022-10-16T14:23:29;1.27;;;1.15;;
25846;SDS011;13676;50.168;8.568;2022-10-16T14:29:03;1.00;;;0.80;;
25846;SDS011;13676;50.168;8.568;2022-10-16T14:31:35;1.20;;;1.02;;
25846;SDS011;13676;50.168;8.568;2022-10-16T14:34:02;2.15;;;1.00;;
25846;SDS011;13676;50.168;8.568;2022-10-16T14:36:28;1.20;;;1.05;;
25846;SDS011;13676;50.168;8.568;2022-10-16T14:38:58;3.25;;;1.00;;
25846;SDS011;13676;50.168;8.568;2022-10-16T14:41:26;1.40;;;1.02;;
25846;SDS011;13676;50.168;8.568;2022-10-16T14:43:53;1.58;;;1.15;;
25846;SDS011;13676;50.168;8.568;2022-10-16T14:48:51;1.42;;;1.00;;
25846;SDS011;13676;50.168;8.568;2022-10-16T14:51:30;1.50;;;1.02;;
25846;SDS011;13676;50.168;8.568;2022-10-16T14:53:55;2.10;;;1.00;;
25846;SDS011;13676;50.168;8.568;2022-10-16T14:56:21;0.82;;;0.82;;
25846;SDS011;13676;50.168;8.568;2022-10-16T14:58:49;0.80;;;0.80;;
25846;SDS011;13676;50.168;8.568;2022-10-16T15:01:15;1.60;;;0.90;;
25846;SDS011;13676;50.168;8.568;2022-10-16T15:03:40;1.05;;;0.80;;
25846;SDS011;13676;50.168;8.568;2022-10-16T15:06:13;1.17;;;0.85;;
25846;SDS011;13676;50.168;8.568;2022-10-16T15:08:40;1.20;;;1.10;;
25846;SDS011;13676;50.168;8.568;2022-10-16T15:11:09;1.23;;;0.90;;
25846;SDS011;13676;50.168;8.568;2022-10-16T15:13:37;1.77;;;1.00;;
25846;SDS011;13676;50.168;8.568;2022-10-16T15:16:02;1.20;;;1.10;;
25846;SDS011;13676;50.168;8.568;2022-10-16T15:18:27;1.25;;;1.02;;
25846;SDS011;13676;50.168;8.568;2022-10-16T15:20:53;1.00;;;0.90;;
25846;SDS011;13676;50.168;8.568;2022-10-16T15:23:20;1.63;;;1.30;;
25846;SDS011;13676;50.168;8.568;2022-10-16T15:25:53;1.38;;;1.10;;
25846;SDS011;13676;50.168;8.568;2022-10-16T15:28:20;1.20;;;1.10;;
25846;SDS011;13676;50.168;8.568;2022-10-16T15:30:46;2.50;;;1.30;;
25846;SDS011;13676;50.168;8.568;2022-10-16T15:33:15;2.67;;;1.30;;
25846;SDS011;13676;50.168;8.568;2022-10-16T15:35:42;2.88;;;1.33;;
25846;SDS011;13676;50.168;8.568;2022-10-16T15:38:11;1.45;;;1.23;;
25846;SDS011;13676;50.168;8.568;2022-10-16T15:40:38;1.75;;;1.50;;
25846;SDS011;13676;50.168;8.568;2022-10-16T15:43:03;1.65;;;1.30;;
25846;SDS011;13676;50.168;8.568;2022-10-16T15:45:29;1.25;;;1.15;;
25846;SDS011;13676;50.168;8.568;2022-10-16T15:47:54;1.80;;;1.25;;
25846;SDS011;13676;50.168;8.568;2022-10-16T15:50:20;1.50;;;1.30;;
25846;SDS011;13676;50.168;8.568;2022-10-16T15:52:45;1.48;;;1.38;;
25846;SDS011;13676;50.168;8.568;2022-10-16T15:55:12;1.50;;;1.40;;
25846;SDS011;13676;50.168;8.568;2022-10-16T15:57:45;1.60;;;1.42;;
25846;SDS011;13676;50.168;8.568;2022-10-16T16:00:12;1.60;;;1.50;;
25846;SDS011;13676;50.168;8.568;2022-10-16T16:02:39;3.30;;;1.42;;
25846;SDS011;13676;50.168;8.568;2022-10-16T16:05:06;1.53;;;1.43;;
25846;SDS011;13676;50.168;8.568;2022-10-16T16:07:36;1.40;;;1.20;;
25846;SDS011;13676;50.168;8.568;2022-10-16T16:10:03;3.42;;;1.30;;
25846;SDS011;13676;50.168;8.568;2022-10-16T16:12:30;1.40;;;1.02;;
25846;SDS011;13676;50.168;8.568;2022-10-16T16:14:56;1.50;;;1.38;;
25846;SDS011;13676;50.168;8.568;2022-10-16T16:17:21;1.88;;;1.60;;
25846;SDS011;13676;50.168;8.568;2022-10-16T16:19:46;1.27;;;1.17;;
25846;SDS011;13676;50.168;8.568;2022-10-16T16:22:12;1.40;;;1.30;;
25846;SDS011;13676;50.168;8.568;2022-10-16T16:24:37;1.95;;;1.30;;
25846;SDS011;13676;50.168;8.568;2022-10-16T16:27:03;1.30;;;1.20;;
25846;SDS011;13676;50.168;8.568;2022-10-16T16:29:28;1.50;;;1.30;;
25846;SDS011;13676;50.168;8.568;2022-10-16T16:31:54;1.48;;;1.30;;
25846;SDS011;13676;50.168;8.568;2022-10-16T16:34:23;2.60;;;1.27;;
25846;SDS011;13676;50.168;8.568;2022-10-16T16:36:49;2.25;;;1.25;;
25846;SDS011;13676;50.168;8.568;2022-10-16T16:39:15;1.30;;;1.17;;
25846;SDS011;13676;50.168;8.568;2022-10-16T16:41:44;1.33;;;1.17;;
25846;SDS011;13676;50.168;8.568;2022-10-16T16:44:11;1.43;;;1.30;;
25846;SDS011;13676;50.168;8.568;2022-10-16T16:46:36;1.50;;;1.10;;
25846;SDS011;13676;50.168;8.568;2022-10-16T16:49:02;4.70;;;1.50;;
25846;SDS011;13676;50.168;8.568;2022-10-16T16:51:31;1.70;;;1.42;;
25846;SDS011;13676;50.168;8.568;2022-10-16T16:53:57;1.55;;;1.27;;
25846;SDS011;13676;50.168;8.568;2022-10-16T16:56:23;1.40;;;1.00;;
25846;SDS011;13676;50.168;8.568;2022-10-16T16:58:50;1.70;;;1.50;;
25846;SDS011;13676;50.168;8.568;2022-10-16T17:01:16;1.50;;;1.20;;
25846;SDS011;13676;50.168;8.568;2022-10-16T17:03:42;4.32;;;1.63;;